Time;durP1;ratioP1;P1;durP2;ratioP2;P2;SDS_P1;SDS_P2;PMS_P1;PMS_P2;Temp;Humidity;BMP_temperature;BMP_pressure;BME280_temperature;BME280_humidity;BME280_pressure;Samples;Min_cycle;Max_cycle;Signal;HPM_P1;HPM_P2
2022/03/10 00:02:53;;;;;;;9.95;5.03;;;7.90;91.60;;;;;;20425297;28;20050;-46
2022/03/10 00:12:54;;;;;;;12.55;5.50;;;7.70;92.50;;;;;;20423117;28;20047;-45
2022/03/10 00:22:56;;;;;;;13.05;5.28;;;7.50;93.30;;;;;;20424252;28;20055;-46
2022/03/10 00:32:58;;;;;;;12.45;5.05;;;7.40;94.10;;;;;;20409231;28;20254;-45
2022/03/10 00:42:59;;;;;;;13.48;5.50;;;7.30;95.10;;;;;;20417377;28;20063;-46
2022/03/10 00:53:00;;;;;;;14.40;5.30;;;7.10;94.70;;;;;;20422699;28;20043;-46
2022/03/10 01:03:01;;;;;;;15.63;5.13;;;6.90;96.00;;;;;;20422530;28;20427;-45
2022/03/10 01:13:03;;;;;;;19.10;6.65;;;6.80;96.30;;;;;;20417631;28;20146;-46
2022/03/10 01:23:05;;;;;;;9.57;5.10;;;6.70;97.00;;;;;;20425104;28;20515;-45
2022/03/10 01:33:06;;;;;;;15.07;5.50;;;6.60;97.00;;;;;;20421345;28;20067;-45
2022/03/10 01:43:07;;;;;;;15.82;6.55;;;6.50;97.50;;;;;;20435483;28;20055;-46
2022/03/10 01:53:08;;;;;;;12.18;4.57;;;6.40;97.80;;;;;;20428176;28;20043;-46
2022/03/10 02:03:09;;;;;;;16.08;5.93;;;6.40;97.90;;;;;;20429064;28;20046;-45
2022/03/10 02:13:12;;;;;;;18.55;6.60;;;6.20;97.60;;;;;;20438423;28;20137;-46
2022/03/10 02:23:14;;;;;;;18.00;6.13;;;6.10;98.10;;;;;;20436041;28;20051;-46
2022/03/10 02:33:15;;;;;;;19.58;6.38;;;6.10;99.00;;;;;;20435115;28;20238;-45
2022/03/10 02:43:18;;;;;;;15.40;5.68;;;5.90;99.30;;;;;;20427862;28;20040;-45
2022/03/10 02:53:19;;;;;;;18.23;5.53;;;5.80;99.90;;;;;;20426769;28;20052;-46
2022/03/10 03:03:20;;;;;;;16.63;6.03;;;5.80;99.90;;;;;;20423535;28;20042;-45
2022/03/10 03:13:21;;;;;;;14.57;5.80;;;5.70;99.90;;;;;;20467316;28;20044;-46
2022/03/10 03:23:25;;;;;;;15.88;6.07;;;5.50;99.90;;;;;;20464371;28;20055;-45
2022/03/10 03:33:26;;;;;;;13.18;5.93;;;5.50;99.90;;;;;;20465418;28;20055;-45
2022/03/10 03:43:28;;;;;;;13.25;5.50;;;5.40;99.90;;;;;;20461420;28;20047;-45
2022/03/10 03:53:29;;;;;;;12.52;5.20;;;5.30;99.90;;;;;;20463776;28;20058;-45
2022/03/10 04:03:31;;;;;;;15.32;5.13;;;5.20;99.90;;;;;;20485853;28;20050;-45
2022/03/10 04:13:32;;;;;;;19.67;6.25;;;5.10;99.90;;;;;;20479228;28;20667;-45
2022/03/10 04:23:33;;;;;;;13.48;5.20;;;5.00;99.90;;;;;;20481035;28;20439;-45
2022/03/10 04:33:37;;;;;;;18.08;5.25;;;5.10;99.90;;;;;;20471554;28;20040;-45
2022/03/10 04:43:40;;;;;;;14.88;5.78;;;5.00;99.90;;;;;;20504040;28;20059;-45
2022/03/10 04:53:42;;;;;;;10.43;4.30;;;5.00;99.90;;;;;;20499233;28;20058;-45
2022/03/10 05:03:43;;;;;;;17.05;5.30;;;5.00;99.90;;;;;;20494185;28;20576;-45
2022/03/10 05:13:44;;;;;;;14.27;5.30;;;4.90;99.90;;;;;;20434393;28;20212;-46
2022/03/10 05:23:46;;;;;;;13.75;4.88;;;4.90;99.90;;;;;;20424107;28;20059;-46
2022/03/10 05:33:47;;;;;;;14.75;5.65;;;4.80;99.90;;;;;;20406266;28;20058;-46
2022/03/10 05:43:49;;;;;;;15.48;5.30;;;4.80;99.90;;;;;;20414768;28;20046;-45
2022/03/10 05:53:51;;;;;;;12.07;5.15;;;4.70;99.90;;;;;;20405978;28;20032;-46
2022/03/10 06:03:52;;;;;;;10.95;4.75;;;4.60;99.90;;;;;;20411304;28;20075;-45
2022/03/10 06:13:53;;;;;;;13.10;4.47;;;4.60;99.90;;;;;;20417055;28;20039;-46
2022/03/10 06:23:55;;;;;;;10.38;4.93;;;4.50;99.90;;;;;;20419274;28;20051;-45
2022/03/10 06:33:57;;;;;;;18.00;5.40;;;4.40;99.90;;;;;;20414008;28;20715;-45
2022/03/10 06:43:58;;;;;;;13.40;4.15;;;4.30;99.90;;;;;;20418843;28;20182;-46
2022/03/10 06:54:00;;;;;;;15.98;5.25;;;4.30;99.90;;;;;;20416155;28;20047;-46
2022/03/10 07:04:01;;;;;;;19.88;5.45;;;4.50;99.90;;;;;;20417471;28;20047;-45
2022/03/10 07:14:02;;;;;;;12.00;4.57;;;4.60;99.90;;;;;;20423922;28;20464;-46
2022/03/10 07:24:05;;;;;;;16.60;5.80;;;4.80;99.90;;;;;;20425320;28;20044;-45
2022/03/10 07:34:06;;;;;;;14.98;6.43;;;5.20;99.90;;;;;;20428060;28;20145;-46
2022/03/10 07:44:07;;;;;;;15.45;5.55;;;5.50;99.90;;;;;;20415490;28;20052;-45
2022/03/10 07:54:09;;;;;;;17.15;5.53;;;5.80;99.90;;;;;;20421871;28;20163;-46
2022/03/10 08:04:10;;;;;;;15.10;5.65;;;6.20;99.90;;;;;;20418838;28;20070;-46
2022/03/10 08:14:12;;;;;;;12.98;4.65;;;6.50;99.90;;;;;;20420192;28;20046;-46
2022/03/10 08:24:14;;;;;;;12.15;4.63;;;6.80;99.90;;;;;;20423186;28;20047;-46
2022/03/10 08:34:16;;;;;;;15.38;6.05;;;7.10;99.90;;;;;;20416392;28;20055;-45
2022/03/10 08:44:17;;;;;;;18.33;5.35;;;7.40;99.90;;;;;;20435812;28;20066;-46
2022/03/10 08:54:18;;;;;;;15.00;6.15;;;7.80;99.90;;;;;;20438203;28;20313;-45
2022/03/10 09:04:20;;;;;;;16.17;6.82;;;8.30;99.90;;;;;;20440628;28;20487;-46
2022/03/10 09:14:25;;;;;;;18.10;6.38;;;8.60;99.70;;;;;;20475872;28;20566;-46
2022/03/10 09:24:26;;;;;;;18.42;8.27;;;9.10;99.30;;;;;;20476379;28;20051;-46
2022/03/10 09:34:28;;;;;;;17.25;6.25;;;9.50;99.10;;;;;;20462092;28;20077;-46
2022/03/10 09:44:32;;;;;;;15.40;6.07;;;9.60;99.10;;;;;;20472056;28;20059;-47
2022/03/10 09:54:33;;;;;;;15.02;5.43;;;10.10;98.90;;;;;;20461171;28;20039;-46
2022/03/10 10:04:34;;;;;;;17.60;7.13;;;10.60;99.70;;;;;;20440204;28;20039;-46
2022/03/10 10:14:38;;;;;;;14.77;6.35;;;10.80;98.50;;;;;;20409834;28;20043;-46
2022/03/10 10:24:47;;;;;;;16.88;8.02;;;11.10;98.30;;;;;;20422430;28;20629;-47
2022/03/10 10:35:00;;;;;;;17.10;5.85;;;11.40;97.40;;;;;;20427139;28;20039;-46
2022/03/10 10:45:21;;;;;;;18.13;6.03;;;11.70;97.80;;;;;;20473005;28;20050;-46
2022/03/10 10:55:41;;;;;;;15.90;6.35;;;12.10;97.30;;;;;;20496560;28;20394;-46
2022/03/10 11:05:42;;;;;;;15.80;6.25;;;12.70;96.70;;;;;;20493472;28;20058;-46
2022/03/10 11:15:45;;;;;;;15.77;6.10;;;13.10;96.90;;;;;;20500006;28;20053;-46
2022/03/10 11:25:55;;;;;;;13.90;5.53;;;13.80;94.70;;;;;;20504857;28;20050;-46
2022/03/10 11:35:58;;;;;;;12.23;5.10;;;14.40;94.80;;;;;;20484345;28;20027;-47
2022/03/10 11:46:21;;;;;;;18.20;6.72;;;15.00;94.10;;;;;;20524788;28;20050;-47
2022/03/10 11:56:33;;;;;;;13.57;5.45;;;15.70;92.20;;;;;;20532202;28;20103;-47
2022/03/10 12:06:34;;;;;;;13.60;5.97;;;16.30;91.70;;;;;;20533538;28;20050;-47
2022/03/10 12:16:38;;;;;;;12.25;5.07;;;16.60;88.60;;;;;;20532808;28;20030;-47
2022/03/10 12:26:45;;;;;;;12.75;5.00;;;16.50;90.20;;;;;;20558770;28;20058;-47
2022/03/10 12:36:50;;;;;;;13.57;5.70;;;16.80;87.20;;;;;;20557814;28;20043;-47
2022/03/10 12:46:53;;;;;;;10.50;4.43;;;17.00;84.80;;;;;;20550183;28;20042;-47
2022/03/10 12:56:56;;;;;;;14.73;5.57;;;17.00;86.00;;;;;;20552883;28;20038;-47
2022/03/10 13:06:59;;;;;;;11.55;5.47;;;17.50;84.80;;;;;;20549886;28;20454;-47
2022/03/10 13:17:00;;;;;;;13.88;6.05;;;17.80;83.70;;;;;;20550204;28;20054;-47
2022/03/10 13:27:03;;;;;;;14.55;5.13;;;17.70;82.30;;;;;;20547309;28;20449;-47
2022/03/10 13:37:07;;;;;;;13.77;4.40;;;17.80;82.50;;;;;;20543200;28;20399;-47
2022/03/10 13:47:09;;;;;;;12.30;4.85;;;17.90;83.10;;;;;;20544816;28;20046;-47
2022/03/10 13:57:13;;;;;;;12.75;5.10;;;18.40;81.20;;;;;;20537912;28;20054;-47
2022/03/10 14:07:14;;;;;;;12.15;5.20;;;18.40;80.80;;;;;;20490731;28;20525;-47
2022/03/10 14:17:16;;;;;;;11.57;4.65;;;18.60;81.20;;;;;;20496405;28;20040;-48
2022/03/10 14:27:18;;;;;;;12.65;6.20;;;18.80;81.30;;;;;;20501068;28;20435;-48
2022/03/10 14:37:19;;;;;;;13.15;4.90;;;18.00;83.00;;;;;;20513062;28;20047;-48
2022/03/10 14:47:20;;;;;;;12.43;4.97;;;18.20;82.30;;;;;;20497805;28;20051;-48
2022/03/10 14:57:21;;;;;;;13.32;4.60;;;18.00;82.50;;;;;;20504186;28;20082;-48
2022/03/10 15:07:23;;;;;;;15.55;7.65;;;17.50;83.70;;;;;;20457328;28;20047;-48
2022/03/10 15:17:24;;;;;;;10.68;4.43;;;17.30;83.40;;;;;;20491828;28;20050;-48
2022/03/10 15:27:25;;;;;;;11.38;4.93;;;17.10;83.50;;;;;;20466124;28;20035;-48
2022/03/10 15:37:29;;;;;;;14.05;5.30;;;16.80;83.60;;;;;;20493595;28;20060;-48
2022/03/10 15:47:30;;;;;;;15.13;5.13;;;16.60;83.40;;;;;;20422251;28;20050;-48
2022/03/10 15:57:31;;;;;;;14.13;6.63;;;16.30;83.60;;;;;;20413917;28;20042;-48
2022/03/10 16:07:33;;;;;;;11.27;4.97;;;16.10;84.30;;;;;;20424537;28;20048;-48
2022/03/10 16:17:34;;;;;;;9.80;4.10;;;15.80;85.80;;;;;;20426877;28;20043;-48
2022/03/10 16:27:35;;;;;;;13.32;5.60;;;15.70;86.70;;;;;;20412814;28;20053;-48
2022/03/10 16:37:37;;;;;;;12.50;6.25;;;15.50;86.20;;;;;;20414118;28;20395;-48
2022/03/10 16:47:38;;;;;;;12.30;4.82;;;15.30;86.10;;;;;;20493957;28;20036;-48
2022/03/10 16:57:39;;;;;;;12.43;4.97;;;15.20;86.20;;;;;;20494835;28;20137;-48
2022/03/10 17:07:41;;;;;;;15.35;4.75;;;15.00;85.90;;;;;;20498708;28;20438;-47
2022/03/10 17:17:44;;;;;;;14.82;4.75;;;14.70;85.90;;;;;;20483090;28;20055;-48
2022/03/10 17:27:45;;;;;;;15.38;5.25;;;14.50;85.70;;;;;;20487923;28;20046;-48
2022/03/10 17:37:47;;;;;;;15.07;5.35;;;14.40;86.30;;;;;;20473984;28;20562;-47
2022/03/10 17:47:48;;;;;;;15.38;6.00;;;14.20;86.80;;;;;;20475055;28;20057;-48
2022/03/10 17:57:50;;;;;;;12.15;5.20;;;14.00;87.50;;;;;;20472777;28;20067;-48
2022/03/10 18:07:52;;;;;;;14.73;5.63;;;13.90;87.20;;;;;;20472828;28;20051;-48
2022/03/10 18:17:53;;;;;;;14.05;5.75;;;13.70;88.10;;;;;;20508034;28;20038;-48
2022/03/10 18:27:54;;;;;;;14.60;5.00;;;13.60;89.20;;;;;;20528961;28;20042;-47
2022/03/10 18:37:56;;;;;;;14.48;5.68;;;13.40;90.10;;;;;;20525777;28;20414;-48
2022/03/10 18:48:05;;;;;;;13.13;5.40;;;13.10;89.70;;;;;;20733923;28;21276;-48
2022/03/10 18:58:06;;;;;;;12.27;5.50;;;13.00;88.80;;;;;;20666742;28;20030;-48
2022/03/10 19:08:07;;;;;;;13.80;5.07;;;12.80;90.20;;;;;;20663470;28;20059;-47
2022/03/10 19:18:10;;;;;;;12.25;4.53;;;12.60;85.70;;;;;;20680278;28;20060;-47
2022/03/10 19:28:12;;;;;;;9.00;3.42;;;12.60;81.30;;;;;;20679040;28;20034;-47
2022/03/10 19:38:13;;;;;;;8.65;3.97;;;12.60;79.80;;;;;;20671865;28;20046;-47
2022/03/10 19:48:14;;;;;;;6.88;2.78;;;12.60;79.70;;;;;;20669629;28;20568;-47
2022/03/10 19:58:17;;;;;;;8.32;2.83;;;12.60;78.90;;;;;;20626529;28;20105;-48
2022/03/10 20:08:18;;;;;;;7.22;2.78;;;12.60;77.40;;;;;;20616528;28;20051;-47
2022/03/10 20:18:19;;;;;;;8.02;3.22;;;12.60;77.40;;;;;;20631576;28;20404;-48
2022/03/10 20:28:20;;;;;;;8.40;2.40;;;12.50;77.50;;;;;;20616856;28;20367;-47
2022/03/10 20:38:22;;;;;;;7.95;3.33;;;12.40;76.60;;;;;;20613856;28;20373;-47
2022/03/10 20:48:23;;;;;;;7.15;2.22;;;12.30;77.10;;;;;;20615740;28;20062;-47
2022/03/10 20:58:24;;;;;;;4.97;2.10;;;12.10;77.50;;;;;;20607250;28;20038;-47
2022/03/10 21:08:26;;;;;;;6.45;2.00;;;12.10;77.50;;;;;;20622799;28;20062;-48
2022/03/10 21:18:27;;;;;;;5.43;2.05;;;12.00;77.50;;;;;;20603396;28;20035;-47
2022/03/10 21:28:28;;;;;;;6.32;2.40;;;11.90;78.50;;;;;;20610328;28;20177;-47
2022/03/10 21:38:30;;;;;;;5.25;2.30;;;11.70;79.20;;;;;;20613562;28;20059;-47
2022/03/10 21:48:33;;;;;;;5.50;2.10;;;11.60;79.50;;;;;;20619347;28;20525;-47
2022/03/10 21:58:34;;;;;;;7.82;2.75;;;11.50;80.30;;;;;;20595499;28;20050;-48
2022/03/10 22:08:35;;;;;;;7.20;2.60;;;11.30;80.80;;;;;;20628678;28;20049;-47
2022/03/10 22:18:36;;;;;;;7.10;2.38;;;11.20;81.60;;;;;;20636285;28;20469;-47
2022/03/10 22:28:38;;;;;;;10.27;2.10;;;11.10;81.00;;;;;;20630657;28;20056;-47
2022/03/10 22:38:39;;;;;;;4.75;2.30;;;10.90;81.50;;;;;;20585567;28;20563;-47
2022/03/10 22:48:42;;;;;;;7.07;2.83;;;10.70;81.70;;;;;;20632404;28;20061;-47
2022/03/10 22:58:43;;;;;;;5.90;2.45;;;10.60;82.40;;;;;;20635378;28;20046;-47
2022/03/10 23:08:44;;;;;;;7.63;2.72;;;10.50;82.60;;;;;;20617479;28;20394;-47
2022/03/10 23:18:46;;;;;;;3.25;1.73;;;10.40;82.80;;;;;;20599499;28;20042;-47
2022/03/10 23:28:47;;;;;;;6.32;2.17;;;10.20;83.20;;;;;;20637447;28;20066;-47
2022/03/10 23:38:49;;;;;;;6.90;2.10;;;10.10;83.10;;;;;;20632067;28;20505;-47
2022/03/10 23:48:50;;;;;;;6.63;2.58;;;10.10;83.10;;;;;;20638823;28;20045;-47
2022/03/10 23:58:51;;;;;;;5.78;2.22;;;10.10;83.30;;;;;;20628782;28;20050;-47
